Time;durP1;ratioP1;P1;durP2;ratioP2;P2;SDS_P1;SDS_P2;PMS_P1;PMS_P2;Temp;Humidity;BMP_temperature;BMP_pressure;BME280_temperature;BME280_humidity;BME280_pressure;Samples;Min_cycle;Max_cycle;Signal;HPM_P1;HPM_P2
2022/08/09 00:01:47;;;;;;;4.40;1.35;;;17.50;99.90;;;;;;5070010;28;20407;-72
2022/08/09 00:04:20;;;;;;;3.10;1.38;;;17.50;99.90;;;;;;5067961;28;20511;-72
2022/08/09 00:06:46;;;;;;;2.70;1.15;;;17.50;99.90;;;;;;5068223;28;20407;-73
2022/08/09 00:09:14;;;;;;;3.33;1.10;;;17.40;99.90;;;;;;5068096;28;20411;-72
2022/08/09 00:11:40;;;;;;;2.60;1.00;;;17.40;99.90;;;;;;5075117;28;20430;-72
2022/08/09 00:14:07;;;;;;;3.00;0.90;;;17.40;99.90;;;;;;5087526;28;20441;-73
2022/08/09 00:16:32;;;;;;;3.72;1.25;;;17.40;99.90;;;;;;5087720;28;20401;-72
2022/08/09 00:18:59;;;;;;;4.47;1.27;;;17.40;99.90;;;;;;5086868;28;20402;-73
2022/08/09 00:21:24;;;;;;;4.10;1.10;;;17.30;99.90;;;;;;5091153;28;20405;-73
2022/08/09 00:23:50;;;;;;;4.70;1.13;;;17.30;99.90;;;;;;5090650;28;20496;-72
2022/08/09 00:26:16;;;;;;;2.97;1.00;;;17.20;99.90;;;;;;5092009;28;20398;-73
2022/08/09 00:28:41;;;;;;;2.15;1.10;;;17.20;99.90;;;;;;5091914;28;20519;-72
2022/08/09 00:31:07;;;;;;;4.00;1.40;;;17.20;99.90;;;;;;5091148;28;21126;-71
2022/08/09 00:33:34;;;;;;;4.47;1.30;;;17.20;99.90;;;;;;5090719;28;20421;-73
2022/08/09 00:36:00;;;;;;;2.35;1.33;;;17.20;99.90;;;;;;5091902;28;20781;-72
2022/08/09 00:38:26;;;;;;;4.07;1.20;;;17.20;99.90;;;;;;5089578;28;20873;-73
2022/08/09 00:40:52;;;;;;;2.83;1.33;;;17.10;99.90;;;;;;5071319;28;20512;-72
2022/08/09 00:43:19;;;;;;;4.68;1.63;;;17.10;99.90;;;;;;5084605;28;20417;-72
2022/08/09 00:45:45;;;;;;;4.43;1.30;;;17.10;99.90;;;;;;5054427;28;20486;-72
2022/08/09 00:48:11;;;;;;;3.43;1.47;;;17.00;99.90;;;;;;5072292;28;20414;-72
2022/08/09 00:50:36;;;;;;;3.70;1.23;;;16.90;99.90;;;;;;5060525;28;20448;-72
2022/08/09 00:53:02;;;;;;;2.93;1.10;;;16.90;99.90;;;;;;5091325;28;20398;-72
2022/08/09 00:55:28;;;;;;;4.57;1.20;;;16.90;99.90;;;;;;5078161;28;20406;-72
2022/08/09 00:57:54;;;;;;;3.42;1.55;;;16.90;99.90;;;;;;5091328;28;20480;-72
2022/08/09 01:00:19;;;;;;;4.57;1.40;;;16.90;99.90;;;;;;5091427;28;20441;-72
2022/08/09 01:02:48;;;;;;;3.85;1.30;;;16.90;99.90;;;;;;5091110;28;20891;-72
2022/08/09 01:05:32;;;;;;;2.60;1.10;;;16.80;99.90;;;;;;5090637;28;20413;-72
2022/08/09 01:08:08;;;;;;;3.20;1.08;;;16.80;99.90;;;;;;5090183;28;20413;-72
2022/08/09 01:10:50;;;;;;;2.80;1.17;;;16.80;99.90;;;;;;5091174;28;20428;-72
2022/08/09 01:13:34;;;;;;;3.45;1.25;;;16.70;99.90;;;;;;5077842;28;20418;-73
2022/08/09 01:16:03;;;;;;;2.97;1.10;;;16.70;99.90;;;;;;5088960;28;20464;-72
2022/08/09 01:18:31;;;;;;;4.63;1.10;;;16.70;99.90;;;;;;5091132;28;20921;-73
2022/08/09 01:21:17;;;;;;;4.13;1.10;;;16.70;99.90;;;;;;5090239;28;20421;-73
2022/08/09 01:23:55;;;;;;;4.70;1.30;;;16.70;99.90;;;;;;5091108;28;20459;-71
2022/08/09 01:26:34;;;;;;;2.97;1.30;;;16.70;99.90;;;;;;5079306;28;20539;-71
2022/08/09 01:29:02;;;;;;;2.23;1.17;;;16.60;99.90;;;;;;5089318;28;20453;-72
2022/08/09 01:31:30;;;;;;;4.23;1.30;;;16.60;99.90;;;;;;5088426;28;20433;-71
2022/08/09 01:33:58;;;;;;;3.77;1.20;;;16.60;99.90;;;;;;5070630;28;20434;-71
2022/08/09 01:36:26;;;;;;;4.07;1.40;;;16.60;99.90;;;;;;5090757;28;20489;-71
2022/08/09 01:38:53;;;;;;;4.28;1.27;;;16.60;99.90;;;;;;5087007;28;20500;-72
2022/08/09 01:41:24;;;;;;;4.40;1.25;;;16.50;99.90;;;;;;5090398;28;20409;-71
2022/08/09 01:43:53;;;;;;;3.50;1.23;;;16.50;99.90;;;;;;5085576;28;20477;-72
2022/08/09 01:46:26;;;;;;;5.28;1.58;;;16.50;99.90;;;;;;5081834;28;20440;-72
2022/08/09 01:48:53;;;;;;;3.15;1.20;;;16.50;99.90;;;;;;5089992;28;20413;-72
2022/08/09 01:51:20;;;;;;;4.82;1.20;;;16.40;99.90;;;;;;5087869;28;20426;-71
2022/08/09 01:53:47;;;;;;;2.70;1.40;;;16.40;99.90;;;;;;5089966;28;20993;-72
2022/08/09 01:56:14;;;;;;;4.03;1.30;;;16.30;99.90;;;;;;5071540;28;20413;-72
2022/08/09 01:58:41;;;;;;;2.88;1.60;;;16.30;99.90;;;;;;5088620;28;20398;-72
2022/08/09 02:01:08;;;;;;;2.85;1.10;;;16.30;99.90;;;;;;5088347;28;20770;-71
2022/08/09 02:03:35;;;;;;;4.10;1.50;;;16.30;99.90;;;;;;5089265;28;20402;-71
2022/08/09 02:06:03;;;;;;;5.00;1.60;;;16.30;99.90;;;;;;5089753;28;20427;-72
2022/08/09 02:08:31;;;;;;;3.50;1.23;;;16.30;99.90;;;;;;5083487;28;20625;-72
2022/08/09 02:11:01;;;;;;;2.85;1.55;;;16.30;99.90;;;;;;5088823;28;20433;-72
2022/08/09 02:13:28;;;;;;;3.28;1.52;;;16.20;99.90;;;;;;5071037;28;20467;-72
2022/08/09 02:15:56;;;;;;;5.10;1.48;;;16.20;99.90;;;;;;5083742;28;21336;-73
2022/08/09 02:18:26;;;;;;;4.40;1.52;;;16.20;99.90;;;;;;5082373;28;20485;-72
2022/08/09 02:20:56;;;;;;;5.70;1.30;;;16.20;99.90;;;;;;5088545;28;20402;-72
2022/08/09 02:23:33;;;;;;;3.40;1.02;;;16.20;99.90;;;;;;5088625;28;20462;-72
2022/08/09 02:26:01;;;;;;;4.88;1.45;;;16.10;99.90;;;;;;5081111;28;20421;-72
2022/08/09 02:28:36;;;;;;;3.78;1.23;;;16.10;99.90;;;;;;5089065;28;20402;-72
2022/08/09 02:31:13;;;;;;;3.85;1.40;;;16.10;99.90;;;;;;5087984;28;20456;-73
2022/08/09 02:33:42;;;;;;;3.75;1.38;;;16.10;99.90;;;;;;5088707;28;20827;-71
2022/08/09 02:36:14;;;;;;;2.58;1.13;;;16.10;99.90;;;;;;5088416;28;20402;-72
2022/08/09 02:38:50;;;;;;;4.43;1.40;;;16.10;99.90;;;;;;5089101;28;20410;-71
2022/08/09 02:41:30;;;;;;;2.05;1.25;;;16.10;99.90;;;;;;5075485;28;20398;-72
2022/08/09 02:44:01;;;;;;;5.05;1.73;;;16.10;99.90;;;;;;5087662;28;20811;-72
2022/08/09 02:46:29;;;;;;;3.20;1.40;;;16.10;99.90;;;;;;5088850;28;20485;-72
2022/08/09 02:49:02;;;;;;;3.10;1.30;;;16.10;99.90;;;;;;5088774;28;20398;-72
2022/08/09 02:51:31;;;;;;;2.10;1.27;;;16.00;99.90;;;;;;5088476;28;20456;-72
2022/08/09 02:53:59;;;;;;;2.72;1.23;;;16.00;99.90;;;;;;5083057;28;20388;-72
2022/08/09 02:56:27;;;;;;;3.20;1.25;;;15.90;99.90;;;;;;5068337;28;20765;-71
2022/08/09 02:58:54;;;;;;;3.60;1.58;;;16.00;99.90;;;;;;5071072;28;20400;-71
2022/08/09 03:01:20;;;;;;;4.00;1.40;;;15.90;99.90;;;;;;5088265;28;20489;-71
2022/08/09 03:03:47;;;;;;;5.30;1.40;;;15.90;99.90;;;;;;5088319;28;20962;-70
2022/08/09 03:06:14;;;;;;;4.82;1.40;;;15.90;99.90;;;;;;5088074;28;20417;-71
2022/08/09 03:08:44;;;;;;;3.85;1.20;;;15.90;99.90;;;;;;5088141;28;20903;-71
2022/08/09 03:11:15;;;;;;;3.22;1.17;;;15.80;99.90;;;;;;5087894;28;20422;-71
2022/08/09 03:13:44;;;;;;;3.78;1.40;;;15.80;99.90;;;;;;5087186;28;20406;-70
2022/08/09 03:16:10;;;;;;;3.50;1.60;;;15.80;99.90;;;;;;5086034;28;20405;-71
2022/08/09 03:18:35;;;;;;;4.53;1.67;;;15.80;99.90;;;;;;5087267;28;20398;-71
2022/08/09 03:21:02;;;;;;;4.53;1.70;;;15.80;99.90;;;;;;5087365;28;20398;-71
2022/08/09 03:23:29;;;;;;;3.92;1.70;;;15.80;99.90;;;;;;5087652;28;20433;-71
2022/08/09 03:25:56;;;;;;;4.28;1.70;;;15.80;99.90;;;;;;5086502;28;20418;-71
2022/08/09 03:28:23;;;;;;;4.68;1.80;;;15.70;99.90;;;;;;5074744;28;20398;-71
2022/08/09 03:30:49;;;;;;;4.43;2.03;;;15.80;99.90;;;;;;5087960;28;20476;-71
2022/08/09 03:33:17;;;;;;;4.90;1.95;;;15.80;99.90;;;;;;5088270;28;20973;-71
2022/08/09 03:35:42;;;;;;;4.57;2.00;;;15.80;99.90;;;;;;5086743;28;20406;-71
2022/08/09 03:38:08;;;;;;;3.20;1.88;;;15.80;99.90;;;;;;5087420;28;20954;-71
2022/08/09 03:40:33;;;;;;;4.60;1.80;;;15.70;99.90;;;;;;5086994;28;20783;-71
2022/08/09 03:42:59;;;;;;;2.97;1.60;;;15.70;99.90;;;;;;5087150;28;20425;-71
2022/08/09 03:45:25;;;;;;;4.53;1.90;;;15.70;99.90;;;;;;5086028;28;20489;-71
2022/08/09 03:47:51;;;;;;;5.78;1.90;;;15.70;99.90;;;;;;5087002;28;20414;-71
2022/08/09 03:50:19;;;;;;;4.37;1.97;;;15.70;99.90;;;;;;5085993;28;20410;-71
2022/08/09 03:52:45;;;;;;;4.43;1.63;;;15.70;99.90;;;;;;5086311;28;20481;-71
2022/08/09 03:55:12;;;;;;;3.03;1.75;;;15.70;99.90;;;;;;5085521;28;20520;-71
2022/08/09 03:57:38;;;;;;;4.10;1.48;;;15.60;99.90;;;;;;5086334;28;20481;-71
2022/08/09 04:00:04;;;;;;;3.53;1.85;;;15.60;99.90;;;;;;5083735;28;20448;-71
2022/08/09 04:02:30;;;;;;;3.95;1.90;;;15.60;99.90;;;;;;5086521;28;20440;-71
2022/08/09 04:04:59;;;;;;;4.47;2.00;;;15.60;99.90;;;;;;5073312;28;20862;-71
2022/08/09 04:07:25;;;;;;;4.15;1.85;;;15.60;99.90;;;;;;5075066;28;20402;-71
2022/08/09 04:09:51;;;;;;;3.97;1.70;;;15.60;99.90;;;;;;5068485;28;20424;-71
2022/08/09 04:12:39;;;;;;;4.25;2.05;;;15.50;99.90;;;;;;5086617;28;20916;-71
2022/08/09 04:15:05;;;;;;;3.22;1.67;;;15.60;99.90;;;;;;5086501;28;20445;-71
2022/08/09 04:17:31;;;;;;;5.85;2.20;;;15.60;99.90;;;;;;5087118;28;20412;-72
2022/08/09 04:19:57;;;;;;;3.80;1.80;;;15.50;99.90;;;;;;5086735;28;20959;-70
2022/08/09 04:22:23;;;;;;;3.95;1.90;;;15.50;99.90;;;;;;5086846;28;20497;-71
2022/08/09 04:24:49;;;;;;;3.60;1.88;;;15.50;99.90;;;;;;5086736;28;20480;-72
2022/08/09 04:27:14;;;;;;;4.27;1.93;;;15.50;99.90;;;;;;5086090;28;20814;-71
2022/08/09 04:29:40;;;;;;;3.00;1.60;;;15.50;99.90;;;;;;5087236;28;20402;-71
2022/08/09 04:32:05;;;;;;;4.30;1.80;;;15.50;99.90;;;;;;5087533;28;20480;-71
2022/08/09 04:34:32;;;;;;;4.30;1.40;;;15.50;99.90;;;;;;5085513;28;20832;-71
2022/08/09 04:36:59;;;;;;;3.57;1.30;;;15.50;99.90;;;;;;5086924;28;20398;-71
2022/08/09 04:39:25;;;;;;;2.83;1.15;;;15.50;99.90;;;;;;5086947;28;20402;-71
2022/08/09 04:41:51;;;;;;;4.45;1.50;;;15.50;99.90;;;;;;5087336;28;20402;-71
2022/08/09 04:44:17;;;;;;;2.60;1.00;;;15.60;99.90;;;;;;5082018;28;20423;-71
2022/08/09 04:46:42;;;;;;;2.90;1.75;;;15.60;99.90;;;;;;5077804;28;20413;-71
2022/08/09 04:49:08;;;;;;;3.37;1.30;;;15.60;99.90;;;;;;5069509;28;20400;-71
2022/08/09 04:51:34;;;;;;;3.85;1.20;;;15.70;99.90;;;;;;5067316;28;20443;-71
2022/08/09 04:53:59;;;;;;;2.63;1.13;;;15.70;99.90;;;;;;5071510;28;20452;-71
2022/08/09 04:56:25;;;;;;;2.72;1.20;;;15.70;99.90;;;;;;5086518;28;20402;-71
2022/08/09 04:58:51;;;;;;;2.90;1.33;;;15.80;99.90;;;;;;5083716;28;20913;-72
2022/08/09 05:01:16;;;;;;;2.45;1.40;;;15.80;99.90;;;;;;5087028;28;20432;-71
2022/08/09 05:03:42;;;;;;;1.97;1.07;;;15.90;99.90;;;;;;5086491;28;20394;-71
2022/08/09 05:06:09;;;;;;;2.60;1.10;;;15.90;99.90;;;;;;5087596;28;20410;-71
2022/08/09 05:08:35;;;;;;;3.22;1.15;;;16.00;99.90;;;;;;5089373;28;20438;-71
2022/08/09 05:11:02;;;;;;;1.90;0.80;;;16.00;99.90;;;;;;5089785;28;20461;-71
2022/08/09 05:13:27;;;;;;;2.40;0.93;;;16.10;99.90;;;;;;5089091;28;20408;-72
2022/08/09 05:15:53;;;;;;;1.80;0.70;;;16.10;99.90;;;;;;5090006;28;20493;-71
2022/08/09 05:18:18;;;;;;;2.78;0.80;;;16.20;99.90;;;;;;5072256;28;20458;-71
2022/08/09 05:20:44;;;;;;;4.97;1.60;;;16.20;99.90;;;;;;5090765;28;20393;-71
2022/08/09 05:23:10;;;;;;;4.13;1.08;;;16.20;99.90;;;;;;5077119;28;21033;-71
2022/08/09 05:25:35;;;;;;;2.30;1.03;;;16.20;99.90;;;;;;5089676;28;20398;-71
2022/08/09 05:28:01;;;;;;;1.87;0.93;;;16.30;99.90;;;;;;5090258;28;20459;-71
2022/08/09 05:30:27;;;;;;;2.50;1.08;;;16.30;99.90;;;;;;5090306;28;20422;-71
2022/08/09 05:32:53;;;;;;;2.60;1.45;;;16.40;99.90;;;;;;5086315;28;20468;-71
2022/08/09 05:35:19;;;;;;;3.00;1.40;;;16.50;99.90;;;;;;5080580;28;20402;-71
2022/08/09 05:37:45;;;;;;;5.00;2.80;;;16.50;99.90;;;;;;5086766;28;20411;-71
2022/08/09 05:40:11;;;;;;;4.60;1.50;;;16.60;99.90;;;;;;5063070;28;20915;-71
2022/08/09 05:42:37;;;;;;;3.72;1.70;;;16.70;99.90;;;;;;5054429;28;20420;-71
2022/08/09 05:45:03;;;;;;;3.07;1.20;;;16.80;99.90;;;;;;5080962;28;20413;-71
2022/08/09 05:47:29;;;;;;;5.03;1.20;;;16.90;99.90;;;;;;5089732;28;20441;-72
2022/08/09 05:49:55;;;;;;;3.70;1.20;;;17.00;99.90;;;;;;5079888;28;20497;-71
2022/08/09 05:52:22;;;;;;;2.95;1.17;;;17.10;99.90;;;;;;5086831;28;20433;-71
2022/08/09 05:54:48;;;;;;;3.75;1.00;;;17.20;99.90;;;;;;5079305;28;20754;-71
2022/08/09 05:57:14;;;;;;;3.77;1.10;;;17.30;99.90;;;;;;5070623;28;20403;-71
2022/08/09 05:59:39;;;;;;;3.08;0.80;;;17.40;99.90;;;;;;5078430;28;20491;-71
2022/08/09 06:02:05;;;;;;;2.25;1.02;;;17.50;99.90;;;;;;5076104;28;20413;-71
2022/08/09 06:04:31;;;;;;;3.60;1.00;;;17.50;99.90;;;;;;5085500;28;20517;-72
2022/08/09 06:06:56;;;;;;;2.63;1.00;;;17.60;99.90;;;;;;5089562;28;20413;-71
2022/08/09 06:09:22;;;;;;;1.90;0.80;;;17.70;99.90;;;;;;5081150;28;20409;-71
2022/08/09 06:11:48;;;;;;;3.93;1.00;;;17.70;99.90;;;;;;5089514;28;20426;-71
2022/08/09 06:14:13;;;;;;;2.28;0.70;;;17.80;99.90;;;;;;5089300;28;20402;-73
2022/08/09 06:16:39;;;;;;;2.40;0.80;;;17.80;99.90;;;;;;5089514;28;20752;-71
2022/08/09 06:19:05;;;;;;;2.33;0.63;;;17.90;99.90;;;;;;5089196;28;20394;-73
2022/08/09 06:21:30;;;;;;;3.93;0.70;;;17.90;99.90;;;;;;5089775;28;20977;-71
2022/08/09 06:23:56;;;;;;;5.87;0.80;;;18.00;99.90;;;;;;5072063;28;20400;-71
2022/08/09 06:26:22;;;;;;;4.75;1.20;;;18.00;99.90;;;;;;5080404;28;20402;-71
2022/08/09 06:28:53;;;;;;;3.83;0.80;;;18.00;99.90;;;;;;5076162;28;20394;-71
2022/08/09 06:31:19;;;;;;;4.80;1.20;;;18.10;99.90;;;;;;5089649;28;20468;-73
2022/08/09 06:33:45;;;;;;;2.05;0.60;;;18.10;99.90;;;;;;5089164;28;20398;-71
2022/08/09 06:36:11;;;;;;;3.53;0.80;;;18.20;99.90;;;;;;5088689;28;20404;-72
2022/08/09 06:38:37;;;;;;;5.32;0.95;;;18.20;99.90;;;;;;5088988;28;20398;-71
2022/08/09 06:41:03;;;;;;;2.55;0.75;;;18.30;99.90;;;;;;5075641;28;20466;-71
2022/08/09 06:43:29;;;;;;;3.00;0.65;;;18.30;99.90;;;;;;5089101;28;20417;-70
2022/08/09 06:45:54;;;;;;;0.70;0.33;;;18.40;99.90;;;;;;5087904;28;20900;-70
2022/08/09 06:48:20;;;;;;;1.67;0.40;;;18.40;99.90;;;;;;5074138;28;20446;-72
2022/08/09 06:50:46;;;;;;;2.17;0.38;;;18.50;99.90;;;;;;5074415;28;20422;-70
2022/08/09 06:53:12;;;;;;;1.83;0.40;;;18.50;99.90;;;;;;5077754;28;21011;-72
2022/08/09 06:55:38;;;;;;;2.40;0.40;;;18.50;99.90;;;;;;5083205;28;20443;-72
2022/08/09 06:58:03;;;;;;;1.90;0.40;;;18.60;99.90;;;;;;5088910;28;20479;-72
2022/08/09 07:00:30;;;;;;;1.93;0.50;;;18.60;99.90;;;;;;5070890;28;20417;-72
2022/08/09 07:02:56;;;;;;;1.00;0.30;;;18.60;99.90;;;;;;5089275;28;20405;-73
2022/08/09 07:05:21;;;;;;;2.53;0.43;;;18.70;99.90;;;;;;5088319;28;21369;-73
2022/08/09 07:07:47;;;;;;;1.42;0.30;;;18.70;99.90;;;;;;5087471;28;20467;-73
2022/08/09 07:10:13;;;;;;;2.00;0.40;;;18.80;99.90;;;;;;5076276;28;20906;-73
2022/08/09 07:12:39;;;;;;;1.55;0.40;;;18.80;99.90;;;;;;5081336;28;20394;-73
2022/08/09 07:15:05;;;;;;;1.37;0.50;;;18.80;99.90;;;;;;5088520;28;20516;-74
2022/08/09 07:17:31;;;;;;;2.00;0.47;;;18.90;99.90;;;;;;5088474;28;20401;-73
2022/08/09 07:19:56;;;;;;;2.70;0.60;;;18.90;99.90;;;;;;5088135;28;20402;-73
2022/08/09 07:22:22;;;;;;;2.93;0.50;;;18.90;99.90;;;;;;5086074;28;20437;-73
2022/08/09 07:24:48;;;;;;;2.67;0.43;;;19.00;99.90;;;;;;5085575;28;20399;-72
2022/08/09 07:27:14;;;;;;;1.75;0.35;;;19.10;99.90;;;;;;5075586;28;20419;-72
2022/08/09 07:29:39;;;;;;;1.65;0.50;;;19.10;99.90;;;;;;5081176;28;20413;-73
2022/08/09 07:32:06;;;;;;;3.70;0.50;;;19.20;99.90;;;;;;5080337;28;20436;-73
2022/08/09 07:34:32;;;;;;;1.00;0.43;;;19.20;99.90;;;;;;5088094;28;20413;-73
2022/08/09 07:36:58;;;;;;;1.85;0.40;;;19.30;99.90;;;;;;5087734;28;20420;-72
2022/08/09 07:39:24;;;;;;;0.93;0.30;;;19.30;99.90;;;;;;5085142;28;20425;-72
2022/08/09 07:41:49;;;;;;;1.33;0.20;;;19.40;99.90;;;;;;5076812;28;20410;-71
2022/08/09 07:44:15;;;;;;;2.40;0.80;;;19.40;99.90;;;;;;5087791;28;20410;-71
2022/08/09 07:46:41;;;;;;;1.42;0.20;;;19.40;99.90;;;;;;5087689;28;20395;-71
2022/08/09 07:49:07;;;;;;;3.00;0.50;;;19.50;99.90;;;;;;5088223;28;20868;-71
2022/08/09 07:51:33;;;;;;;1.90;0.60;;;19.60;99.90;;;;;;5087506;28;20418;-71
2022/08/09 07:53:58;;;;;;;2.07;0.43;;;19.60;99.90;;;;;;5087421;28;20428;-71
2022/08/09 07:56:26;;;;;;;1.35;0.50;;;19.70;99.90;;;;;;5085345;28;20425;-71
2022/08/09 07:58:52;;;;;;;5.85;0.60;;;19.70;99.90;;;;;;5088266;28;20397;-71
2022/08/09 08:01:18;;;;;;;1.63;0.40;;;19.80;99.90;;;;;;5086923;28;20418;-71
2022/08/09 08:03:44;;;;;;;1.20;0.35;;;19.90;99.90;;;;;;5068049;28;20923;-73
2022/08/09 08:06:10;;;;;;;2.38;0.50;;;19.90;99.90;;;;;;5087878;28;20394;-71
2022/08/09 08:08:35;;;;;;;1.40;0.30;;;19.90;99.90;;;;;;5087386;28;20400;-71
2022/08/09 08:11:01;;;;;;;1.60;0.50;;;20.00;99.90;;;;;;5067214;28;21009;-71
2022/08/09 08:13:27;;;;;;;1.85;0.30;;;20.10;99.90;;;;;;5082774;28;20426;-73
2022/08/09 08:15:53;;;;;;;1.30;0.30;;;20.10;99.90;;;;;;5077426;28;20436;-72
2022/08/09 08:18:18;;;;;;;1.10;0.30;;;20.10;99.90;;;;;;5087307;28;20398;-72
2022/08/09 08:20:44;;;;;;;2.50;0.30;;;20.20;99.90;;;;;;5088116;28;20409;-71
2022/08/09 08:23:11;;;;;;;1.10;0.40;;;20.20;99.90;;;;;;5087835;28;20530;-72
2022/08/09 08:25:37;;;;;;;1.05;0.20;;;20.30;99.90;;;;;;5084654;28;20421;-72
2022/08/09 08:28:03;;;;;;;0.70;0.22;;;20.40;99.90;;;;;;5087138;28;20451;-71
2022/08/09 08:30:29;;;;;;;1.65;0.50;;;20.50;99.90;;;;;;5069425;28;20454;-72
2022/08/09 08:32:55;;;;;;;2.63;0.30;;;20.50;99.90;;;;;;5087490;28;20483;-72
2022/08/09 08:35:21;;;;;;;3.10;0.57;;;20.50;99.90;;;;;;5086325;28;20429;-71
2022/08/09 08:37:47;;;;;;;0.60;0.20;;;20.50;99.90;;;;;;5087443;28;20405;-71
2022/08/09 08:40:13;;;;;;;1.47;0.30;;;20.60;99.90;;;;;;5087471;28;20398;-72
2022/08/09 08:42:40;;;;;;;1.08;0.20;;;20.60;99.90;;;;;;5088896;28;20420;-71
2022/08/09 08:45:06;;;;;;;1.05;0.20;;;20.60;99.90;;;;;;5090761;28;20931;-71
2022/08/09 08:47:32;;;;;;;1.00;0.15;;;20.70;99.90;;;;;;5091565;28;20393;-71
2022/08/09 08:49:59;;;;;;;1.50;0.27;;;20.70;99.90;;;;;;5090064;28;20420;-71
2022/08/09 08:52:27;;;;;;;0.83;0.10;;;20.60;99.90;;;;;;5067952;28;20514;-71
2022/08/09 08:54:58;;;;;;;1.85;0.30;;;20.70;99.90;;;;;;5083262;28;20398;-71
2022/08/09 08:57:25;;;;;;;1.35;0.20;;;20.60;99.90;;;;;;5091315;28;20402;-71
2022/08/09 08:59:52;;;;;;;1.08;0.20;;;20.70;99.90;;;;;;5091381;28;20763;-71
2022/08/09 09:02:25;;;;;;;0.55;0.10;;;20.70;99.90;;;;;;5090842;28;20410;-72
2022/08/09 09:05:00;;;;;;;0.50;0.10;;;20.80;99.90;;;;;;5089195;28;20978;-71
2022/08/09 09:07:29;;;;;;;1.00;0.10;;;21.00;99.90;;;;;;5072312;28;20457;-71
2022/08/09 09:09:57;;;;;;;0.65;0.22;;;21.20;99.90;;;;;;5087046;28;20420;-72
2022/08/09 09:12:28;;;;;;;1.23;0.17;;;21.30;99.90;;;;;;5090646;28;20426;-72
2022/08/09 09:14:57;;;;;;;1.08;0.30;;;21.40;99.90;;;;;;5088749;28;20410;-71
2022/08/09 09:17:23;;;;;;;1.30;0.20;;;21.50;99.90;;;;;;5090404;28;20876;-72
2022/08/09 09:19:49;;;;;;;4.20;0.30;;;21.50;99.90;;;;;;5070261;28;20451;-72
2022/08/09 09:22:18;;;;;;;1.37;0.20;;;21.70;99.90;;;;;;5080429;28;20402;-73
2022/08/09 09:24:50;;;;;;;0.90;0.20;;;21.90;99.90;;;;;;5088698;28;20487;-72
2022/08/09 09:27:24;;;;;;;1.15;0.35;;;22.00;99.60;;;;;;5091057;28;20426;-71
2022/08/09 09:29:50;;;;;;;1.10;0.20;;;22.10;99.40;;;;;;5087989;28;20463;-72
2022/08/09 09:32:24;;;;;;;1.40;0.20;;;22.30;99.60;;;;;;5082592;28;20429;-72
2022/08/09 09:35:09;;;;;;;0.90;0.10;;;22.60;99.40;;;;;;5090470;28;20402;-72
2022/08/09 09:37:35;;;;;;;1.27;0.30;;;22.80;99.30;;;;;;5090735;28;20414;-73
2022/08/09 09:40:01;;;;;;;0.60;0.10;;;23.30;98.60;;;;;;5088882;28;20394;-72
2022/08/09 09:42:28;;;;;;;1.33;0.20;;;23.80;98.10;;;;;;5075424;28;20438;-71
2022/08/09 09:44:57;;;;;;;0.60;0.10;;;24.30;97.30;;;;;;5079707;28;20483;-70
2022/08/09 09:47:22;;;;;;;0.50;0.10;;;24.70;96.50;;;;;;5087675;28;20490;-71
2022/08/09 09:49:53;;;;;;;0.80;0.10;;;25.10;96.10;;;;;;5080523;28;20048;-72
2022/08/09 09:52:20;;;;;;;0.40;0.10;;;25.60;95.30;;;;;;5072514;28;20086;-71
2022/08/09 09:54:46;;;;;;;0.75;0.10;;;25.80;93.60;;;;;;5089649;28;20485;-71
2022/08/09 09:57:21;;;;;;;0.65;0.20;;;26.00;94.00;;;;;;5075647;28;20410;-73
2022/08/09 09:59:52;;;;;;;1.85;0.20;;;26.10;93.60;;;;;;5090340;28;20406;-71
2022/08/09 10:02:17;;;;;;;;;;;26.30;93.60;;;;;;5077894;28;20119;-72
2022/08/09 10:04:45;;;;;;;0.52;0.10;;;26.50;91.50;;;;;;5091221;28;20019;-71
2022/08/09 10:07:25;;;;;;;3.08;0.30;;;26.60;92.30;;;;;;5089441;28;20394;-72
2022/08/09 10:09:54;;;;;;;0.77;0.10;;;26.80;91.70;;;;;;5089476;28;20441;-72
2022/08/09 10:12:31;;;;;;;1.27;0.20;;;26.90;90.90;;;;;;5082219;28;20457;-70
2022/08/09 10:15:14;;;;;;;1.33;0.10;;;27.00;91.00;;;;;;5066721;28;20055;-72
2022/08/09 10:17:47;;;;;;;0.83;0.10;;;27.20;90.90;;;;;;5083068;28;20036;-72
2022/08/09 10:20:19;;;;;;;0.43;0.10;;;27.50;90.00;;;;;;5077951;28;20274;-71
2022/08/09 10:22:45;;;;;;;;;;;27.60;89.90;;;;;;5060446;28;20044;-71
2022/08/09 10:25:11;;;;;;;0.40;0.10;;;27.60;89.70;;;;;;5084285;28;19927;-72
2022/08/09 10:27:37;;;;;;;0.50;0.10;;;27.70;88.10;;;;;;5084148;28;20036;-72
2022/08/09 10:30:05;;;;;;;0.22;0.10;;;27.90;86.50;;;;;;5070577;28;20789;-72
2022/08/09 10:32:33;;;;;;;1.42;0.10;;;28.10;86.10;;;;;;5053693;28;20499;-70
2022/08/09 10:34:59;;;;;;;0.40;0.10;;;28.30;87.00;;;;;;5090746;28;20044;-70
2022/08/09 10:37:25;;;;;;;0.73;0.20;;;28.60;85.10;;;;;;5090389;28;20061;-70
2022/08/09 10:39:52;;;;;;;1.25;0.10;;;28.70;83.90;;;;;;5083492;28;20040;-72
2022/08/09 10:42:18;;;;;;;1.02;0.10;;;28.90;83.50;;;;;;5070358;28;20119;-71
2022/08/09 10:44:58;;;;;;;0.38;0.10;;;28.90;82.30;;;;;;5052003;28;20053;-71
2022/08/09 10:47:33;;;;;;;1.20;0.10;;;29.00;81.70;;;;;;5072305;28;20090;-71
2022/08/09 10:50:12;;;;;;;0.63;0.17;;;28.90;80.90;;;;;;5072992;28;20056;-70
2022/08/09 10:52:52;;;;;;;0.40;0.10;;;28.90;79.70;;;;;;5074936;28;20132;-70
2022/08/09 10:55:20;;;;;;;1.73;0.10;;;29.00;78.30;;;;;;5077468;28;20355;-72
2022/08/09 10:57:46;;;;;;;0.25;0.00;;;29.00;78.30;;;;;;5070320;28;20040;-70
2022/08/09 11:00:30;;;;;;;0.40;0.10;;;29.00;77.00;;;;;;5070766;28;20032;-70
2022/08/09 11:02:56;;;;;;;0.88;0.20;;;28.90;76.90;;;;;;5075086;28;21049;-72
2022/08/09 11:05:23;;;;;;;0.47;0.10;;;28.90;75.60;;;;;;5054668;28;20452;-71
2022/08/09 11:07:49;;;;;;;0.50;0.10;;;28.80;76.60;;;;;;5073735;28;20419;-72
2022/08/09 11:10:40;;;;;;;0.50;0.10;;;28.90;75.20;;;;;;5077162;28;20488;-70
2022/08/09 11:13:12;;;;;;;;;;;29.00;73.10;;;;;;5090414;28;20032;-71
2022/08/09 11:15:38;;;;;;;0.85;0.10;;;29.00;73.70;;;;;;5090151;28;19977;-71
2022/08/09 11:18:03;;;;;;;0.75;0.00;;;29.00;72.60;;;;;;5080485;28;20494;-71
2022/08/09 11:20:55;;;;;;;0.50;0.10;;;29.00;72.90;;;;;;5089781;28;20109;-70
2022/08/09 11:23:21;;;;;;;1.27;0.10;;;29.10;72.90;;;;;;5081604;28;20058;-69
2022/08/09 11:25:47;;;;;;;0.55;0.00;;;29.20;72.50;;;;;;5072869;28;20482;-70
2022/08/09 11:28:34;;;;;;;0.10;0.00;;;29.30;71.10;;;;;;5071195;28;20114;-70
2022/08/09 11:31:21;;;;;;;0.55;0.10;;;29.20;70.80;;;;;;5077718;28;20439;-71
2022/08/09 11:33:49;;;;;;;;;;;29.20;69.30;;;;;;5084535;28;20043;-70
2022/08/09 11:36:16;;;;;;;1.52;0.10;;;29.40;71.10;;;;;;5089573;28;20447;-70
2022/08/09 11:38:41;;;;;;;0.00;0.00;;;29.40;69.20;;;;;;5078540;28;20044;-70
2022/08/09 11:41:13;;;;;;;0.45;0.10;;;29.40;67.80;;;;;;5089709;28;20032;-70
2022/08/09 11:43:47;;;;;;;1.20;0.10;;;29.40;68.80;;;;;;5081887;28;20048;-70
2022/08/09 11:46:13;;;;;;;1.17;0.00;;;29.50;68.40;;;;;;5079625;28;20044;-70
2022/08/09 11:49:06;;;;;;;1.35;0.00;;;29.50;66.50;;;;;;5068881;28;20062;-72
2022/08/09 11:52:02;;;;;;;0.85;0.10;;;29.40;66.40;;;;;;5080330;28;20063;-72
2022/08/09 11:54:28;;;;;;;0.70;0.10;;;29.30;67.90;;;;;;5079947;28;20052;-71
2022/08/09 11:56:53;;;;;;;1.30;0.00;;;29.40;68.10;;;;;;5075933;28;20039;-71
2022/08/09 11:59:27;;;;;;;0.95;0.00;;;29.60;66.80;;;;;;5086420;28;20033;-71
2022/08/09 12:01:53;;;;;;;0.30;0.10;;;29.60;67.00;;;;;;5059941;28;20119;-71
2022/08/09 12:04:19;;;;;;;0.38;0.10;;;29.70;67.50;;;;;;5076405;28;20135;-72
2022/08/09 12:06:49;;;;;;;1.30;0.10;;;29.70;67.00;;;;;;5084826;28;20058;-72
2022/08/09 12:09:15;;;;;;;0.80;0.10;;;29.70;67.10;;;;;;5084627;28;20442;-72
2022/08/09 12:11:41;;;;;;;0.68;0.03;;;29.80;67.20;;;;;;5087977;28;20078;-72
2022/08/09 12:14:09;;;;;;;1.45;0.32;;;29.90;66.40;;;;;;5083120;28;20045;-70
2022/08/09 12:16:37;;;;;;;0.50;0.00;;;29.90;66.50;;;;;;5084632;28;20062;-71
2022/08/09 12:19:05;;;;;;;0.28;0.00;;;30.00;65.50;;;;;;5084763;28;20040;-71
2022/08/09 12:21:37;;;;;;;0.10;0.00;;;30.00;65.10;;;;;;5072377;28;20047;-71
2022/08/09 12:24:06;;;;;;;0.25;0.10;;;30.00;66.00;;;;;;5089431;28;20040;-71
2022/08/09 12:26:49;;;;;;;2.20;0.15;;;30.10;65.40;;;;;;5088910;28;20044;-71
2022/08/09 12:29:20;;;;;;;0.10;0.10;;;30.10;64.70;;;;;;5077120;28;20071;-71
2022/08/09 12:31:48;;;;;;;0.90;0.23;;;30.10;64.30;;;;;;5088954;28;20084;-71
2022/08/09 12:34:15;;;;;;;0.82;0.00;;;29.80;63.90;;;;;;5088931;28;20674;-70
2022/08/09 12:36:55;;;;;;;1.00;0.00;;;29.70;63.90;;;;;;5088879;28;20040;-70
2022/08/09 12:39:21;;;;;;;;;;;29.70;63.50;;;;;;5081478;28;20090;-71
2022/08/09 12:41:47;;;;;;;1.65;0.10;;;29.80;64.70;;;;;;5079180;28;19956;-71
2022/08/09 12:44:13;;;;;;;0.60;0.10;;;29.90;65.50;;;;;;5081789;28;20521;-71
2022/08/09 12:46:46;;;;;;;0.65;0.00;;;30.00;63.80;;;;;;5071216;28;20044;-71
2022/08/09 12:49:12;;;;;;;0.28;0.10;;;30.10;63.80;;;;;;5068050;28;20492;-71
2022/08/09 12:51:38;;;;;;;0.60;0.10;;;30.20;63.20;;;;;;5087239;28;20467;-71
2022/08/09 12:54:05;;;;;;;0.15;0.00;;;30.10;63.40;;;;;;5071102;28;20086;-71